Time;durP1;ratioP1;P1;durP2;ratioP2;P2;SDS_P1;SDS_P2;PMS_P1;PMS_P2;Temp;Humidity;BMP_temperature;BMP_pressure;BME280_temperature;BME280_humidity;BME280_pressure;Samples;Min_cycle;Max_cycle;Signal;HPM_P1;HPM_P2
2023/10/26 00:11:37;;;;;;;0.05;0.05;;;;;;;;;;6177408;23;20132;-89
2023/10/26 00:14:12;;;;;;;0.57;0.10;;;;;;;;;;6185240;23;20096;-88
2023/10/26 00:16:54;;;;;;;0.08;0.00;;;;;;;;;;6183765;23;20071;-86
2023/10/26 00:25:57;;;;;;;0.25;0.10;;;;;;;;;;6060749;23;20088;-89
2023/10/26 00:44:35;;;;;;;0.05;0.03;;;;;;;;;;6062329;23;20022;-88
2023/10/26 01:16:36;;;;;;;3.30;0.22;;;;;;;;;;6098728;23;20022;-90
2023/10/26 01:22:51;;;;;;;0.55;0.40;;;;;;;;;;6211753;23;20020;-90
2023/10/26 01:25:39;;;;;;;0.40;0.30;;;;;;;;;;6185441;23;20023;-90
2023/10/26 01:28:08;;;;;;;0.47;0.10;;;;;;;;;;6188044;23;20470;-88
2023/10/26 01:31:22;;;;;;;;;;;;;;;;;;;;;
2023/10/26 01:33:59;;;;;;;0.25;0.10;;;;;;;;;;6092802;23;20102;-87
2023/10/26 01:42:42;;;;;;;0.17;0.10;;;;;;;;;;6128643;23;20018;-87
2023/10/26 02:04:50;;;;;;;0.00;0.00;;;;;;;;;;5920410;24;20074;-89
2023/10/26 02:07:53;;;;;;;0.43;0.10;;;;;;;;;;5871164;24;20324;-88
2023/10/26 02:10:29;;;;;;;;;;;;;;;;;;;;;
2023/10/26 02:13:32;;;;;;;0.30;0.22;;;;;;;;;;5919906;24;19986;-88
2023/10/26 02:42:06;;;;;;;;;;;;;;;;;;;;;
2023/10/26 04:16:39;;;;;;;0.20;0.10;;;;;;;;;;6265279;22;20110;-88
2023/10/26 04:19:36;;;;;;;0.80;0.20;;;;;;;;;;6242120;22;20077;-89
2023/10/26 04:28:44;;;;;;;0.00;0.00;;;;;;;;;;6238119;23;20015;-88
2023/10/26 04:34:08;;;;;;;0.20;0.10;;;;;;;;;;6201724;22;20034;-89
2023/10/26 04:37:19;;;;;;;0.10;0.10;;;;;;;;;;6245437;22;20025;-88
2023/10/26 04:40:30;;;;;;;;;;;;;;;;;;;;;
2023/10/26 05:19:47;;;;;;;0.20;0.13;;;;;;;;;;6231310;22;20043;-86
2023/10/26 05:22:21;;;;;;;6.53;0.30;;;;;;;;;;6221068;23;20018;-87
2023/10/26 05:25:00;;;;;;;15.30;0.70;;;;;;;;;;6219595;23;20008;-88
2023/10/26 05:27:26;;;;;;;0.88;0.30;;;;;;;;;;6221023;23;20051;-87
2023/10/26 05:29:53;;;;;;;2.05;0.40;;;;;;;;;;6221211;23;20039;-88
2023/10/26 05:32:20;;;;;;;0.68;0.28;;;;;;;;;;6219676;23;20004;-87
2023/10/26 05:34:49;;;;;;;0.98;0.32;;;;;;;;;;6218097;23;20015;-87
2023/10/26 05:37:15;;;;;;;1.38;0.68;;;;;;;;;;6220726;23;20015;-88
2023/10/26 05:39:41;;;;;;;0.35;0.17;;;;;;;;;;6221763;23;20019;-86
2023/10/26 05:42:07;;;;;;;1.08;0.45;;;;;;;;;;6219774;23;20000;-86
2023/10/26 05:44:33;;;;;;;0.38;0.20;;;;;;;;;;6220286;23;20305;-89
2023/10/26 05:46:59;;;;;;;0.40;0.10;;;;;;;;;;6220855;23;20095;-89
2023/10/26 05:49:26;;;;;;;0.73;0.30;;;;;;;;;;6219954;23;20036;-90
2023/10/26 05:51:57;;;;;;;2.10;0.60;;;;;;;;;;6218006;23;20011;-89
2023/10/26 05:54:23;;;;;;;0.77;0.52;;;;;;;;;;6218472;23;20015;-89
2023/10/26 05:56:49;;;;;;;1.75;0.52;;;;;;;;;;6219267;23;20129;-88
2023/10/26 05:59:15;;;;;;;0.50;0.25;;;;;;;;;;6216372;23;20792;-90
2023/10/26 06:01:41;;;;;;;0.20;0.10;;;;;;;;;;6217663;23;20098;-89
2023/10/26 06:04:07;;;;;;;0.85;0.38;;;;;;;;;;6216986;23;20087;-89
2023/10/26 06:06:33;;;;;;;0.10;0.10;;;;;;;;;;6218275;23;20435;-89
2023/10/26 06:08:59;;;;;;;0.25;0.10;;;;;;;;;;6217564;23;20035;-88
2023/10/26 06:11:26;;;;;;;0.55;0.30;;;;;;;;;;6217460;23;20195;-89
2023/10/26 06:13:52;;;;;;;1.98;0.60;;;;;;;;;;6216681;23;20012;-89
2023/10/26 06:16:18;;;;;;;0.65;0.30;;;;;;;;;;6219712;23;20078;-88
2023/10/26 06:18:44;;;;;;;1.27;0.52;;;;;;;;;;6220611;23;20035;-88
2023/10/26 06:21:10;;;;;;;0.60;0.30;;;;;;;;;;6220769;23;20444;-88
2023/10/26 06:23:36;;;;;;;3.30;0.43;;;;;;;;;;6221007;23;20020;-88
2023/10/26 06:26:03;;;;;;;2.97;0.70;;;;;;;;;;6220549;23;20027;-89
2023/10/26 06:28:29;;;;;;;7.80;1.52;;;;;;;;;;6220337;23;20050;-88
2023/10/26 06:30:55;;;;;;;;;;;;;;;;;;6220696;23;20008;-88
2023/10/26 06:33:21;;;;;;;0.70;0.55;;;;;;;;;;6220362;23;19914;-88
2023/10/26 06:35:48;;;;;;;1.88;0.52;;;;;;;;;;6219659;23;20012;-88
2023/10/26 06:38:14;;;;;;;1.65;0.40;;;;;;;;;;6219672;23;20012;-88
2023/10/26 06:40:40;;;;;;;0.57;0.30;;;;;;;;;;6220725;23;20008;-89
2023/10/26 06:43:06;;;;;;;0.20;0.20;;;;;;;;;;6219910;23;20419;-89
2023/10/26 06:45:33;;;;;;;2.97;1.27;;;;;;;;;;6218525;23;20015;-88
2023/10/26 06:47:59;;;;;;;4.50;1.52;;;;;;;;;;6219433;23;20055;-89
2023/10/26 06:50:25;;;;;;;3.30;1.27;;;;;;;;;;6218852;23;20055;-88
2023/10/26 06:52:51;;;;;;;2.85;0.98;;;;;;;;;;6219396;23;20424;-89
2023/10/26 06:55:17;;;;;;;2.17;0.73;;;;;;;;;;6217564;23;20007;-88
2023/10/26 06:57:44;;;;;;;0.00;0.00;;;;;;;;;;6218740;23;20406;-88
2023/10/26 07:00:10;;;;;;;0.17;0.10;;;;;;;;;;6219391;23;20022;-89
2023/10/26 07:02:36;;;;;;;0.10;0.10;;;;;;;;;;6219332;23;20012;-88
2023/10/26 07:05:03;;;;;;;0.30;0.20;;;;;;;;;;6219824;23;20048;-89
2023/10/26 07:07:30;;;;;;;2.65;0.38;;;;;;;;;;6218565;23;20016;-89
2023/10/26 07:09:56;;;;;;;;;;;;;;;;;;6219903;23;20012;-88
2023/10/26 07:12:22;;;;;;;1.42;0.43;;;;;;;;;;6219518;23;20219;-89
2023/10/26 07:14:53;;;;;;;1.35;0.40;;;;;;;;;;6219150;23;20015;-89
2023/10/26 07:17:19;;;;;;;1.55;0.45;;;;;;;;;;6219513;23;20028;-89
2023/10/26 07:19:45;;;;;;;0.40;0.20;;;;;;;;;;6220128;23;20028;-89
2023/10/26 07:22:11;;;;;;;0.80;0.40;;;;;;;;;;6219839;23;20332;-89
2023/10/26 07:24:37;;;;;;;1.20;0.70;;;;;;;;;;6222708;23;20004;-88
2023/10/26 07:27:04;;;;;;;1.35;0.80;;;;;;;;;;6220730;23;20004;-88
2023/10/26 07:29:30;;;;;;;2.38;0.60;;;;;;;;;;6218268;23;20031;-89
2023/10/26 07:31:56;;;;;;;0.75;0.15;;;;;;;;;;6218963;23;20008;-88
2023/10/26 07:34:22;;;;;;;1.15;0.50;;;;;;;;;;6217661;23;20035;-89
2023/10/26 07:36:49;;;;;;;1.25;0.60;;;;;;;;;;6217920;23;20012;-89
2023/10/26 07:39:15;;;;;;;0.45;0.40;;;;;;;;;;6217397;23;20066;-88
2023/10/26 07:41:41;;;;;;;1.25;0.80;;;;;;;;;;6218189;23;20012;-88
2023/10/26 07:44:07;;;;;;;2.60;1.05;;;;;;;;;;6215751;23;20429;-89
2023/10/26 07:46:33;;;;;;;0.95;0.40;;;;;;;;;;6217579;23;20415;-88
2023/10/26 07:48:59;;;;;;;0.47;0.35;;;;;;;;;;6218042;23;20548;-88
2023/10/26 07:51:25;;;;;;;0.98;0.50;;;;;;;;;;6218584;23;20016;-88
2023/10/26 07:53:51;;;;;;;1.52;0.50;;;;;;;;;;6218442;23;20011;-88
2023/10/26 07:56:17;;;;;;;2.00;0.63;;;;;;;;;;6216904;23;20019;-88
2023/10/26 07:58:43;;;;;;;0.47;0.20;;;;;;;;;;6218288;23;20027;-88
2023/10/26 08:01:09;;;;;;;0.43;0.20;;;;;;;;;;6218306;23;20431;-88
2023/10/26 08:03:35;;;;;;;1.38;0.55;;;;;;;;;;6218980;23;20055;-88
2023/10/26 08:06:02;;;;;;;1.10;0.77;;;;;;;;;;6218550;23;20016;-89
2023/10/26 08:08:29;;;;;;;3.13;0.45;;;;;;;;;;6219030;23;20010;-89
2023/10/26 08:10:55;;;;;;;0.80;0.40;;;;;;;;;;6218740;23;20141;-89
2023/10/26 08:13:22;;;;;;;1.30;0.40;;;;;;;;;;6217680;23;20015;-88
2023/10/26 08:15:48;;;;;;;2.30;0.85;;;;;;;;;;6216360;23;20065;-88
2023/10/26 08:18:14;;;;;;;13.18;0.70;;;;;;;;;;6215416;23;20008;-89
2023/10/26 08:20:41;;;;;;;1.23;0.50;;;;;;;;;;6216597;23;20047;-89
2023/10/26 08:23:07;;;;;;;4.82;2.10;;;;;;;;;;6214984;23;20012;-89
2023/10/26 08:25:36;;;;;;;2.03;0.30;;;;;;;;;;6215583;23;20016;-88
2023/10/26 08:28:02;;;;;;;4.45;1.55;;;;;;;;;;6214500;23;20016;-89
2023/10/26 08:30:28;;;;;;;1.55;0.57;;;;;;;;;;6216153;23;20012;-89
2023/10/26 08:32:56;;;;;;;0.40;0.28;;;;;;;;;;6216225;23;20062;-89
2023/10/26 08:35:22;;;;;;;4.40;1.10;;;;;;;;;;6215875;23;20068;-89
2023/10/26 08:37:49;;;;;;;0.60;0.30;;;;;;;;;;6215817;23;20507;-89
2023/10/26 08:40:15;;;;;;;0.95;0.28;;;;;;;;;;6216093;23;20012;-89
2023/10/26 08:42:44;;;;;;;0.88;0.43;;;;;;;;;;6214512;23;20012;-89
2023/10/26 08:45:23;;;;;;;0.60;0.40;;;;;;;;;;6215299;23;20012;-90
2023/10/26 08:47:50;;;;;;;3.80;1.02;;;;;;;;;;6215768;23;20803;-89
2023/10/26 08:50:19;;;;;;;1.20;0.50;;;;;;;;;;6217032;23;20012;-90
2023/10/26 08:52:45;;;;;;;2.08;0.43;;;;;;;;;;6215507;23;20007;-89
2023/10/26 08:55:11;;;;;;;1.73;0.40;;;;;;;;;;6216575;23;20020;-90
2023/10/26 08:57:51;;;;;;;2.88;0.75;;;;;;;;;;6217688;23;20008;-89
2023/10/26 09:00:18;;;;;;;3.28;1.23;;;;;;;;;;6215892;23;20027;-90
2023/10/26 09:02:44;;;;;;;0.75;0.47;;;;;;;;;;6214374;23;20008;-90
2023/10/26 09:05:11;;;;;;;2.55;1.13;;;;;;;;;;6215437;23;20632;-89
2023/10/26 09:07:38;;;;;;;1.58;0.40;;;;;;;;;;6213760;23;20004;-89
2023/10/26 09:10:04;;;;;;;1.45;0.55;;;;;;;;;;6215604;23;20015;-89
2023/10/26 09:12:30;;;;;;;3.67;0.70;;;;;;;;;;6214729;23;20055;-88
2023/10/26 09:15:06;;;;;;;1.98;0.75;;;;;;;;;;6214974;23;20024;-90
2023/10/26 09:17:33;;;;;;;1.95;0.75;;;;;;;;;;6215078;23;20039;-90
2023/10/26 09:19:59;;;;;;;2.42;0.50;;;;;;;;;;6214348;23;20726;-88
2023/10/26 09:22:36;;;;;;;2.45;0.43;;;;;;;;;;6215265;23;20436;-89
2023/10/26 09:25:09;;;;;;;3.05;0.95;;;;;;;;;;6214737;23;20019;-88
2023/10/26 09:27:36;;;;;;;1.02;0.30;;;;;;;;;;6216498;23;20014;-88
2023/10/26 09:30:02;;;;;;;0.75;0.30;;;;;;;;;;6217576;23;20012;-88
2023/10/26 09:32:35;;;;;;;1.77;0.93;;;;;;;;;;6217646;23;20039;-89
2023/10/26 09:35:02;;;;;;;2.20;0.95;;;;;;;;;;6217777;23;20012;-88
2023/10/26 09:37:29;;;;;;;1.75;0.65;;;;;;;;;;6218650;23;20008;-88
2023/10/26 09:39:55;;;;;;;4.78;0.80;;;;;;;;;;6219388;23;20015;-88
2023/10/26 09:42:22;;;;;;;1.15;0.30;;;;;;;;;;6219828;23;20015;-89
2023/10/26 09:44:48;;;;;;;3.47;1.00;;;;;;;;;;6218613;23;20082;-88
2023/10/26 09:47:15;;;;;;;1.08;0.50;;;;;;;;;;6217001;23;20019;-88
2023/10/26 09:49:41;;;;;;;0.98;0.50;;;;;;;;;;6217563;23;20562;-89
2023/10/26 09:52:07;;;;;;;1.20;0.60;;;;;;;;;;6218367;23;20062;-88
2023/10/26 09:54:35;;;;;;;2.65;0.57;;;;;;;;;;6215523;23;20023;-88
2023/10/26 09:57:13;;;;;;;0.85;0.35;;;;;;;;;;6217192;23;20012;-88
2023/10/26 09:59:40;;;;;;;0.98;0.20;;;;;;;;;;6216176;23;20027;-88
2023/10/26 10:02:16;;;;;;;1.65;0.47;;;;;;;;;;6215599;23;20043;-88
2023/10/26 10:04:43;;;;;;;1.65;0.57;;;;;;;;;;6216209;23;20044;-88
2023/10/26 10:07:09;;;;;;;1.20;0.50;;;;;;;;;;6216758;23;20039;-88
2023/10/26 10:09:55;;;;;;;2.05;0.43;;;;;;;;;;6218818;23;20019;-87
2023/10/26 10:12:27;;;;;;;1.63;0.70;;;;;;;;;;6215748;23;20023;-88
2023/10/26 10:14:57;;;;;;;;;;;;;;;;;;6217158;23;20016;-89
2023/10/26 10:17:43;;;;;;;1.58;0.75;;;;;;;;;;6216506;23;19903;-89
2023/10/26 10:20:30;;;;;;;8.25;3.08;;;;;;;;;;6212981;23;20168;-88
2023/10/26 10:22:59;;;;;;;1.95;1.02;;;;;;;;;;6197246;23;20095;-88
2023/10/26 10:25:44;;;;;;;2.17;1.38;;;;;;;;;;6187075;23;20021;-89
2023/10/26 10:28:12;;;;;;;1.27;0.82;;;;;;;;;;6185705;23;20337;-88
2023/10/26 10:31:09;;;;;;;1.40;0.40;;;;;;;;;;6187070;23;20016;-88
2023/10/26 10:33:40;;;;;;;1.20;0.38;;;;;;;;;;6162992;23;20017;-89
2023/10/26 10:36:08;;;;;;;0.85;0.30;;;;;;;;;;6187257;23;20111;-89
2023/10/26 10:38:34;;;;;;;0.55;0.28;;;;;;;;;;6185943;23;20036;-88
2023/10/26 10:41:00;;;;;;;1.83;0.68;;;;;;;;;;6186782;23;20908;-88
2023/10/26 10:43:35;;;;;;;1.98;0.85;;;;;;;;;;6184613;23;20267;-89
2023/10/26 10:46:21;;;;;;;1.98;0.63;;;;;;;;;;6185957;23;20047;-89
2023/10/26 10:49:18;;;;;;;1.85;0.70;;;;;;;;;;6185380;23;20004;-89
2023/10/26 10:51:44;;;;;;;1.70;0.40;;;;;;;;;;6162161;23;20020;-89
2023/10/26 10:54:17;;;;;;;0.22;0.10;;;;;;;;;;6185300;23;20051;-89
2023/10/26 10:56:44;;;;;;;1.17;0.30;;;;;;;;;;6186481;23;20020;-89
2023/10/26 10:59:23;;;;;;;0.55;0.20;;;;;;;;;;6185461;23;20345;-89
2023/10/26 11:01:50;;;;;;;0.57;0.30;;;;;;;;;;6186312;23;20009;-89
2023/10/26 11:04:16;;;;;;;0.57;0.38;;;;;;;;;;6186776;23;20011;-88
2023/10/26 11:06:46;;;;;;;0.40;0.25;;;;;;;;;;6186093;23;20015;-89
2023/10/26 11:09:26;;;;;;;0.88;0.40;;;;;;;;;;6184847;23;20008;-88
2023/10/26 11:11:52;;;;;;;0.85;0.20;;;;;;;;;;6185751;23;20036;-88
2023/10/26 11:14:19;;;;;;;4.22;0.55;;;;;;;;;;6185311;23;20024;-88
2023/10/26 11:16:45;;;;;;;;;;;;;;;;;;6186107;23;20301;-88
2023/10/26 11:19:11;;;;;;;0.63;0.32;;;;;;;;;;6185220;23;19939;-88
2023/10/26 11:21:38;;;;;;;0.50;0.35;;;;;;;;;;6186332;23;20001;-88
2023/10/26 11:24:04;;;;;;;1.55;0.75;;;;;;;;;;6185019;23;20055;-88
2023/10/26 11:26:30;;;;;;;1.27;0.65;;;;;;;;;;6185578;23;20024;-88
2023/10/26 11:28:56;;;;;;;3.45;1.05;;;;;;;;;;6184833;23;20016;-88
2023/10/26 11:31:42;;;;;;;0.75;0.20;;;;;;;;;;6185984;23;20012;-89
2023/10/26 11:34:08;;;;;;;2.22;0.55;;;;;;;;;;6184505;23;20455;-89
2023/10/26 11:36:38;;;;;;;3.05;0.50;;;;;;;;;;6185018;23;20107;-88
2023/10/26 11:39:04;;;;;;;1.85;0.60;;;;;;;;;;6184147;23;20099;-89
2023/10/26 11:41:30;;;;;;;4.00;1.25;;;;;;;;;;6185232;23;20017;-89
2023/10/26 11:44:00;;;;;;;2.97;0.45;;;;;;;;;;6184606;23;20084;-88
2023/10/26 11:46:33;;;;;;;1.33;0.93;;;;;;;;;;6185612;23;20024;-89
2023/10/26 11:49:00;;;;;;;1.85;1.00;;;;;;;;;;6184985;23;20026;-88
2023/10/26 11:51:27;;;;;;;1.33;0.68;;;;;;;;;;6185552;23;20451;-88
2023/10/26 11:53:53;;;;;;;1.05;0.60;;;;;;;;;;6184624;23;20012;-89
2023/10/26 11:56:19;;;;;;;0.45;0.32;;;;;;;;;;6184363;23;20008;-88
2023/10/26 11:58:45;;;;;;;1.10;0.30;;;;;;;;;;6183568;23;20360;-89
2023/10/26 12:01:11;;;;;;;0.52;0.32;;;;;;;;;;6184679;23;20425;-88
2023/10/26 12:03:42;;;;;;;1.17;0.30;;;;;;;;;;6185285;23;20009;-88
2023/10/26 12:06:10;;;;;;;;;;;;;;;;;;6185484;23;20008;-88
2023/10/26 12:08:36;;;;;;;4.97;0.70;;;;;;;;;;6185332;23;20185;-89
2023/10/26 12:11:04;;;;;;;1.40;0.85;;;;;;;;;;6185404;23;20005;-89
2023/10/26 12:13:32;;;;;;;3.67;1.15;;;;;;;;;;6174528;23;20013;-88
2023/10/26 12:15:58;;;;;;;4.28;1.38;;;;;;;;;;6187214;23;20043;-89
2023/10/26 12:18:25;;;;;;;2.25;0.93;;;;;;;;;;6184471;23;20015;-89
2023/10/26 12:20:51;;;;;;;0.95;0.63;;;;;;;;;;6184396;23;20348;-89
2023/10/26 12:23:17;;;;;;;0.47;0.28;;;;;;;;;;6184172;23;20013;-89
2023/10/26 12:25:43;;;;;;;2.00;0.80;;;;;;;;;;6184916;23;20016;-89
2023/10/26 12:28:08;;;;;;;1.80;0.73;;;;;;;;;;6184548;23;20004;-89
2023/10/26 12:30:35;;;;;;;1.08;0.35;;;;;;;;;;6184947;23;20013;-89
2023/10/26 12:33:00;;;;;;;2.75;0.77;;;;;;;;;;6184370;23;20467;-89
2023/10/26 12:35:27;;;;;;;2.92;0.75;;;;;;;;;;6184950;23;20021;-89
2023/10/26 12:37:53;;;;;;;2.10;0.75;;;;;;;;;;6184662;23;20005;-90
2023/10/26 12:40:20;;;;;;;0.30;0.25;;;;;;;;;;6185686;23;20028;-89
2023/10/26 12:42:46;;;;;;;1.50;0.20;;;;;;;;;;6187103;23;20043;-89
2023/10/26 12:45:13;;;;;;;1.83;0.40;;;;;;;;;;6186342;23;20126;-88
2023/10/26 12:47:39;;;;;;;0.77;0.20;;;;;;;;;;6184281;23;20005;-88
2023/10/26 12:50:05;;;;;;;0.73;0.30;;;;;;;;;;6184861;23;20105;-89
2023/10/26 12:52:31;;;;;;;0.82;0.40;;;;;;;;;;6184213;23;20821;-89
2023/10/26 12:54:57;;;;;;;1.42;0.90;;;;;;;;;;6184861;23;20020;-89
2023/10/26 12:57:23;;;;;;;3.65;1.73;;;;;;;;;;6185232;23;20012;-89
2023/10/26 12:59:50;;;;;;;2.25;0.90;;;;;;;;;;6184579;23;20054;-89
2023/10/26 13:02:16;;;;;;;0.50;0.30;;;;;;;;;;6185420;23;20017;-89
2023/10/26 13:04:42;;;;;;;0.95;0.30;;;;;;;;;;6184891;23;20016;-89
2023/10/26 13:07:08;;;;;;;2.10;0.77;;;;;;;;;;6186573;23;20004;-89
2023/10/26 13:09:35;;;;;;;1.58;0.20;;;;;;;;;;6186021;23;20012;-89
2023/10/26 13:12:01;;;;;;;1.75;0.45;;;;;;;;;;6186805;23;20000;-89
2023/10/26 13:14:27;;;;;;;1.27;0.30;;;;;;;;;;6186182;23;20009;-87
2023/10/26 13:16:54;;;;;;;0.73;0.40;;;;;;;;;;6186360;23;20011;-89
2023/10/26 13:19:22;;;;;;;3.90;0.68;;;;;;;;;;6184491;23;20386;-88
2023/10/26 13:21:48;;;;;;;0.70;0.40;;;;;;;;;;6185980;23;20091;-89
2023/10/26 13:24:14;;;;;;;2.83;0.63;;;;;;;;;;6185912;23;20360;-88
2023/10/26 13:26:40;;;;;;;2.70;0.80;;;;;;;;;;6185304;23;20360;-89
2023/10/26 13:29:06;;;;;;;1.85;0.77;;;;;;;;;;6188894;23;20008;-89
2023/10/26 13:31:32;;;;;;;0.40;0.30;;;;;;;;;;6189935;23;20072;-89
2023/10/26 13:33:58;;;;;;;2.75;0.98;;;;;;;;;;6186749;23;20009;-89
2023/10/26 13:36:24;;;;;;;2.50;0.75;;;;;;;;;;6185473;23;20013;-89
2023/10/26 13:38:50;;;;;;;1.67;0.60;;;;;;;;;;6186208;23;20016;-89
2023/10/26 13:41:16;;;;;;;1.70;0.70;;;;;;;;;;6185822;23;20051;-89
2023/10/26 13:43:42;;;;;;;5.05;0.57;;;;;;;;;;6186480;23;20063;-89
2023/10/26 13:46:08;;;;;;;;;;;;;;;;;;6187026;23;20014;-88
2023/10/26 13:48:34;;;;;;;2.65;0.38;;;;;;;;;;6186156;23;19908;-88
2023/10/26 13:51:00;;;;;;;2.60;1.05;;;;;;;;;;6186296;23;20027;-89
2023/10/26 13:53:26;;;;;;;3.65;1.20;;;;;;;;;;6186156;23;20423;-89
2023/10/26 13:55:53;;;;;;;2.28;0.60;;;;;;;;;;6186125;23;20068;-88
2023/10/26 13:58:19;;;;;;;0.52;0.32;;;;;;;;;;6186388;23;20486;-88
2023/10/26 14:00:45;;;;;;;1.40;0.60;;;;;;;;;;6185912;23;20017;-88
2023/10/26 14:03:11;;;;;;;2.95;0.77;;;;;;;;;;6186207;23;20051;-89
2023/10/26 14:05:37;;;;;;;3.50;1.20;;;;;;;;;;6186021;23;20797;-89
2023/10/26 14:08:03;;;;;;;1.13;0.63;;;;;;;;;;6185632;23;20004;-89
2023/10/26 14:10:29;;;;;;;1.33;0.65;;;;;;;;;;6186140;23;20013;-89
2023/10/26 14:12:55;;;;;;;1.17;0.30;;;;;;;;;;6186694;23;20416;-89
2023/10/26 14:15:21;;;;;;;2.95;1.25;;;;;;;;;;6186612;23;20016;-88
2023/10/26 14:17:47;;;;;;;0.75;0.32;;;;;;;;;;6186855;23;20536;-89
2023/10/26 14:20:13;;;;;;;2.13;0.50;;;;;;;;;;6187238;23;20045;-89
2023/10/26 14:22:40;;;;;;;1.10;0.20;;;;;;;;;;6185392;23;20021;-89
2023/10/26 14:25:06;;;;;;;5.80;0.68;;;;;;;;;;6185911;23;20475;-89
2023/10/26 14:27:32;;;;;;;0.98;0.38;;;;;;;;;;6185949;23;20020;-88
2023/10/26 14:29:58;;;;;;;3.10;0.70;;;;;;;;;;6185499;23;20013;-88
2023/10/26 14:32:24;;;;;;;2.25;1.17;;;;;;;;;;6185767;23;20016;-89
2023/10/26 14:34:50;;;;;;;2.13;0.63;;;;;;;;;;6185891;23;20022;-89
2023/10/26 14:37:16;;;;;;;0.55;0.40;;;;;;;;;;6185775;23;20609;-89
2023/10/26 14:39:44;;;;;;;2.35;1.35;;;;;;;;;;6186021;23;20040;-88
2023/10/26 14:42:12;;;;;;;2.15;0.95;;;;;;;;;;6185208;23;20016;-88
2023/10/26 14:44:38;;;;;;;1.52;0.50;;;;;;;;;;6186771;23;20021;-87
2023/10/26 14:47:04;;;;;;;0.45;0.20;;;;;;;;;;6185741;23;20122;-88
2023/10/26 14:49:30;;;;;;;0.80;0.10;;;;;;;;;;6185631;23;20013;-88
2023/10/26 14:51:56;;;;;;;0.88;0.55;;;;;;;;;;6184948;23;20012;-89
2023/10/26 14:54:22;;;;;;;0.77;0.38;;;;;;;;;;6185931;23;20546;-88
2023/10/26 14:56:48;;;;;;;0.95;0.43;;;;;;;;;;6184680;23;20008;-88
2023/10/26 14:59:14;;;;;;;2.95;0.60;;;;;;;;;;6185708;23;20001;-88
2023/10/26 15:01:40;;;;;;;1.10;0.45;;;;;;;;;;6185595;23;20009;-87
2023/10/26 15:04:07;;;;;;;0.20;0.10;;;;;;;;;;6186499;23;20431;-88
2023/10/26 15:06:33;;;;;;;1.02;0.30;;;;;;;;;;6186462;23;20070;-88
2023/10/26 15:08:59;;;;;;;0.77;0.45;;;;;;;;;;6185343;23;20020;-88
2023/10/26 15:11:25;;;;;;;1.50;0.55;;;;;;;;;;6185392;23;20502;-87
2023/10/26 15:13:54;;;;;;;1.08;0.30;;;;;;;;;;6185103;23;20027;-87
2023/10/26 15:16:20;;;;;;;0.10;0.10;;;;;;;;;;6185591;23;20020;-88
2023/10/26 15:18:46;;;;;;;3.55;0.73;;;;;;;;;;6184493;23;20345;-88
2023/10/26 15:21:12;;;;;;;2.47;0.28;;;;;;;;;;6185613;23;20020;-88
2023/10/26 15:23:38;;;;;;;1.48;0.35;;;;;;;;;;6185058;23;20008;-88
2023/10/26 15:26:05;;;;;;;0.80;0.30;;;;;;;;;;6186016;23;20017;-88
2023/10/26 15:28:32;;;;;;;2.40;0.52;;;;;;;;;;6184810;23;20019;-88
2023/10/26 15:30:58;;;;;;;3.38;1.20;;;;;;;;;;6186102;23;20012;-88
2023/10/26 15:33:24;;;;;;;1.23;0.40;;;;;;;;;;6184647;23;20082;-88
2023/10/26 15:35:50;;;;;;;3.13;0.63;;;;;;;;;;6185477;23;20047;-88
2023/10/26 15:38:16;;;;;;;1.40;0.45;;;;;;;;;;6184705;23;20100;-89
2023/10/26 15:40:42;;;;;;;2.80;0.98;;;;;;;;;;6212604;23;20036;-88
2023/10/26 15:43:08;;;;;;;3.33;0.82;;;;;;;;;;6184537;23;20392;-88
2023/10/26 15:45:34;;;;;;;4.80;1.02;;;;;;;;;;6185724;23;20463;-87
2023/10/26 15:48:00;;;;;;;2.75;0.98;;;;;;;;;;6185030;23;20670;-87
2023/10/26 15:50:28;;;;;;;1.40;0.57;;;;;;;;;;6184906;23;20077;-88
2023/10/26 15:52:54;;;;;;;0.32;0.28;;;;;;;;;;6185006;23;20016;-87
2023/10/26 15:55:20;;;;;;;3.33;0.43;;;;;;;;;;6184687;23;20067;-88
2023/10/26 15:57:46;;;;;;;0.57;0.38;;;;;;;;;;6184776;23;20013;-88
2023/10/26 16:00:12;;;;;;;0.88;0.20;;;;;;;;;;6184461;23;20091;-88
2023/10/26 16:02:44;;;;;;;0.85;0.57;;;;;;;;;;6185406;23;20069;-88
2023/10/26 16:05:10;;;;;;;0.70;0.30;;;;;;;;;;6184392;23;20630;-88
2023/10/26 16:07:36;;;;;;;1.10;0.52;;;;;;;;;;6185509;23;20051;-88
2023/10/26 16:10:02;;;;;;;1.67;0.73;;;;;;;;;;6184941;23;20020;-88
2023/10/26 16:12:28;;;;;;;1.48;0.60;;;;;;;;;;6185302;23;20062;-88
2023/10/26 16:14:54;;;;;;;3.97;1.45;;;;;;;;;;6183921;23;20416;-88
2023/10/26 16:17:20;;;;;;;1.77;0.60;;;;;;;;;;6183242;23;20553;-88
2023/10/26 16:19:47;;;;;;;1.55;0.30;;;;;;;;;;6183148;23;20029;-89
2023/10/26 16:22:13;;;;;;;2.97;1.10;;;;;;;;;;6211794;23;20424;-88
2023/10/26 16:24:39;;;;;;;4.20;1.40;;;;;;;;;;6183984;23;20017;-88
2023/10/26 16:27:05;;;;;;;4.13;1.52;;;;;;;;;;6185762;23;20008;-87
2023/10/26 16:29:31;;;;;;;8.23;2.08;;;;;;;;;;6185140;23;20684;-87
2023/10/26 16:31:57;;;;;;;3.97;1.25;;;;;;;;;;6184404;23;20261;-86
2023/10/26 16:34:23;;;;;;;3.30;1.70;;;;;;;;;;6183580;23;20405;-87
2023/10/26 16:36:51;;;;;;;1.70;0.80;;;;;;;;;;6184332;23;20008;-88
2023/10/26 16:39:18;;;;;;;2.08;0.73;;;;;;;;;;6186446;23;20008;-89
2023/10/26 16:41:44;;;;;;;1.85;0.95;;;;;;;;;;6186633;23;20043;-88
2023/10/26 16:44:10;;;;;;;1.70;0.50;;;;;;;;;;6187373;23;20019;-86
2023/10/26 16:46:36;;;;;;;2.33;0.90;;;;;;;;;;6187529;23;20027;-87
2023/10/26 16:49:02;;;;;;;3.33;1.63;;;;;;;;;;6186759;23;20004;-86
2023/10/26 16:51:28;;;;;;;5.47;2.05;;;;;;;;;;6186824;23;20023;-87
2023/10/26 16:53:54;;;;;;;2.15;1.25;;;;;;;;;;6187163;23;20012;-87
2023/10/26 16:56:20;;;;;;;2.90;1.45;;;;;;;;;;6187121;23;20020;-86
2023/10/26 16:58:46;;;;;;;4.55;0.95;;;;;;;;;;6189827;23;20412;-88
2023/10/26 17:01:12;;;;;;;2.03;1.15;;;;;;;;;;6188628;23;20059;-84
2023/10/26 17:03:38;;;;;;;3.55;1.70;;;;;;;;;;6217641;23;20004;-87
2023/10/26 17:06:05;;;;;;;2.72;1.13;;;;;;;;;;6189311;23;20093;-87
2023/10/26 17:08:31;;;;;;;3.00;1.00;;;;;;;;;;6189250;23;20008;-87
2023/10/26 17:10:58;;;;;;;2.35;1.20;;;;;;;;;;6187317;23;20016;-86
2023/10/26 17:13:24;;;;;;;4.85;1.80;;;;;;;;;;6187868;23;20032;-87
2023/10/26 17:15:53;;;;;;;4.25;2.33;;;;;;;;;;6188878;23;20333;-88
2023/10/26 17:18:20;;;;;;;4.43;1.92;;;;;;;;;;6189084;23;20012;-88
2023/10/26 17:20:46;;;;;;;3.20;1.73;;;;;;;;;;6188098;23;20043;-87
2023/10/26 17:23:12;;;;;;;1.55;0.63;;;;;;;;;;6188473;23;20012;-89
2023/10/26 17:25:38;;;;;;;1.95;1.05;;;;;;;;;;6186859;23;20683;-90
2023/10/26 17:28:04;;;;;;;1.63;1.08;;;;;;;;;;6186883;23;20027;-90
2023/10/26 17:30:34;;;;;;;0.77;0.60;;;;;;;;;;6188309;23;20103;-90
2023/10/26 17:33:17;;;;;;;;;;;;;;;;;;;;;
2023/10/26 17:35:54;;;;;;;4.15;1.10;;;;;;;;;;6213909;23;20099;-90
2023/10/26 17:39:06;;;;;;;;;;;;;;;;;;;;;
2023/10/26 17:44:45;;;;;;;0.55;0.30;;;;;;;;;;6206257;23;20055;-88
2023/10/26 17:47:23;;;;;;;0.82;0.40;;;;;;;;;;6185921;23;20018;-89
2023/10/26 17:50:30;;;;;;;0.60;0.43;;;;;;;;;;6186799;23;20008;-89
2023/10/26 17:53:07;;;;;;;0.52;0.20;;;;;;;;;;6163528;23;20025;-90
2023/10/26 17:55:43;;;;;;;0.85;0.28;;;;;;;;;;6187496;23;20004;-92
2023/10/26 17:58:09;;;;;;;0.90;0.45;;;;;;;;;;6186658;23;20332;-89
2023/10/26 18:00:39;;;;;;;6.47;2.35;;;;;;;;;;6187911;23;20051;-88
2023/10/26 18:03:07;;;;;;;2.22;0.85;;;;;;;;;;6188344;23;20111;-86
2023/10/26 18:05:36;;;;;;;7.68;2.85;;;;;;;;;;6187354;23;20016;-89
2023/10/26 18:08:02;;;;;;;3.90;1.98;;;;;;;;;;6191936;23;20008;-91
2023/10/26 18:10:53;;;;;;;3.63;1.45;;;;;;;;;;6191235;23;20013;-89
2023/10/26 18:13:27;;;;;;;2.60;1.63;;;;;;;;;;6169884;23;20446;-89
2023/10/26 18:16:17;;;;;;;14.80;1.98;;;;;;;;;;6186774;23;20016;-89
2023/10/26 18:19:00;;;;;;;2.85;1.23;;;;;;;;;;6212844;23;20058;-89
2023/10/26 18:21:34;;;;;;;4.68;1.52;;;;;;;;;;6187472;23;20023;-87
2023/10/26 18:24:03;;;;;;;4.93;2.30;;;;;;;;;;6184481;23;20024;-88
2023/10/26 18:29:29;;;;;;;2.63;0.95;;;;;;;;;;6211644;23;20016;-90
2023/10/26 18:31:58;;;;;;;1.85;0.77;;;;;;;;;;6186354;23;20024;-90
2023/10/26 18:34:24;;;;;;;0.65;0.30;;;;;;;;;;6186794;23;20001;-90
2023/10/26 18:36:50;;;;;;;1.70;0.55;;;;;;;;;;6187218;23;20012;-90
2023/10/26 18:39:22;;;;;;;0.30;0.10;;;;;;;;;;6184959;23;20412;-90
2023/10/26 18:41:56;;;;;;;8.33;0.53;;;;;;;;;;6184095;23;20025;-89
2023/10/26 18:44:24;;;;;;;0.70;0.32;;;;;;;;;;6186449;23;20243;-90
2023/10/26 18:46:50;;;;;;;3.90;0.57;;;;;;;;;;6185669;23;20016;-90
2023/10/26 18:49:27;;;;;;;1.52;0.70;;;;;;;;;;6187489;23;20448;-90
2023/10/26 18:55:09;;;;;;;0.88;0.73;;;;;;;;;;6215852;23;20036;-90
2023/10/26 18:57:43;;;;;;;3.13;0.75;;;;;;;;;;6178621;23;20028;-89
2023/10/26 19:00:50;;;;;;;3.60;1.70;;;;;;;;;;6153824;23;20425;-89
2023/10/26 19:03:25;;;;;;;4.60;1.60;;;;;;;;;;6150547;23;20041;-90
2023/10/26 19:05:51;;;;;;;3.50;1.70;;;;;;;;;;6152900;23;20017;-92
2023/10/26 19:08:18;;;;;;;9.77;4.47;;;;;;;;;;6158485;23;20067;-92
2023/10/26 19:10:50;;;;;;;8.88;2.88;;;;;;;;;;6157271;23;20039;-91
2023/10/26 19:13:16;;;;;;;4.32;1.67;;;;;;;;;;6155928;23;20453;-91
2023/10/26 19:15:42;;;;;;;1.95;0.90;;;;;;;;;;6158696;23;20055;-90
2023/10/26 19:18:08;;;;;;;1.58;0.98;;;;;;;;;;6159038;23;20013;-90
2023/10/26 19:20:38;;;;;;;2.13;1.15;;;;;;;;;;6158448;23;20039;-90
2023/10/26 19:23:04;;;;;;;1.83;0.77;;;;;;;;;;6157860;23;20017;-90
2023/10/26 19:25:31;;;;;;;1.65;0.63;;;;;;;;;;6157771;23;20049;-91
2023/10/26 19:27:57;;;;;;;1.17;0.65;;;;;;;;;;6157841;23;20432;-90